createdAt,value
2023-04-02T15:18:12.098Z,100898.91
2023-04-02T15:20:48.552Z,100899.66
2023-04-02T15:23:34.382Z,100904.00
2023-04-02T15:26:11.905Z,100912.03
2023-04-02T15:29:09.293Z,100915.69
2023-04-02T15:31:45.752Z,100906.28
2023-04-02T15:34:20.080Z,100908.22
2023-04-02T15:37:08.153Z,100906.69
2023-04-02T15:39:56.801Z,100899.94
2023-04-02T15:42:34.142Z,100907.16
2023-04-02T15:45:12.811Z,100913.44
2023-04-02T15:47:42.389Z,100908.41
2023-04-02T15:50:44.065Z,100910.34
2023-04-02T15:53:34.866Z,100910.50
2023-04-02T15:56:28.430Z,100915.91
2023-04-02T15:59:41.229Z,100915.16
2023-04-02T16:02:27.327Z,100913.56
2023-04-02T16:05:09.110Z,100922.38
2023-04-02T16:08:17.173Z,100921.56
2023-04-02T16:10:45.557Z,100919.97
2023-04-02T16:13:20.781Z,100912.19
2023-04-02T16:16:21.200Z,100917.50
2023-04-02T16:18:59.240Z,100922.81
2023-04-02T16:21:33.264Z,100928.09
2023-04-02T16:24:00.185Z,100927.31
2023-04-02T16:26:32.520Z,100919.50
2023-04-02T16:29:28.636Z,100917.81
2023-04-02T16:32:05.053Z,100929.19
2023-04-02T16:35:40.925Z,100929.25
2023-04-02T16:38:10.468Z,100924.97
2023-04-02T16:41:06.812Z,100925.84
2023-04-02T16:44:02.124Z,100926.75
2023-04-02T16:50:00.017Z,100916.44
2023-04-02T16:53:11.443Z,100929.53
2023-04-02T16:56:07.814Z,100927.81
2023-04-02T16:58:49.788Z,100923.50
2023-04-02T17:01:33.545Z,100920.91
2023-04-02T17:04:22.997Z,100918.34
2023-04-02T17:07:22.915Z,100918.38
2023-04-02T17:09:52.231Z,100918.38
2023-04-02T17:12:32.534Z,100915.78
2023-04-02T17:15:17.034Z,100914.97
2023-04-02T17:17:58.071Z,100915.84
2023-04-02T17:20:27.125Z,100919.34
2023-04-02T17:22:55.792Z,100922.88
2023-04-02T17:25:38.583Z,100918.53
2023-04-02T17:28:12.492Z,100920.31
2023-04-02T17:30:51.259Z,100914.19
2023-04-02T17:33:22.039Z,100918.59
2023-04-02T17:36:02.242Z,100914.22
2023-04-02T17:38:47.873Z,100916.84
2023-04-02T17:41:30.546Z,100909.91
2023-04-02T17:44:05.913Z,100912.50
2023-04-02T17:47:03.267Z,100910.78
2023-04-02T17:50:00.924Z,100915.16
2023-04-02T17:52:48.598Z,100922.13
2023-04-02T17:55:40.635Z,100919.50
2023-04-02T17:58:39.402Z,100918.66
2023-04-02T18:01:17.470Z,100918.66
2023-04-02T18:03:49.230Z,100919.53
2023-04-02T18:06:27.734Z,100909.09
2023-04-02T18:09:29.605Z,100917.81
2023-04-02T18:12:38.778Z,100916.09
2023-04-02T18:15:47.659Z,100915.22
2023-04-02T18:18:35.012Z,100910.00
2023-04-02T18:21:24.537Z,100906.50
2023-04-02T18:24:35.746Z,100914.34
2023-04-02T18:27:11.362Z,100896.97
2023-04-02T18:29:50.002Z,100906.53
2023-04-02T18:32:34.904Z,100907.38
2023-04-02T18:35:38.834Z,100914.34
2023-04-02T18:38:43.665Z,100904.78
2023-04-02T18:41:32.384Z,100910.03
2023-04-02T18:44:08.848Z,100903.06
2023-04-02T18:46:41.742Z,100898.72
2023-04-02T18:49:27.770Z,100899.56
2023-04-02T18:52:02.441Z,100904.78
2023-04-02T18:54:35.883Z,100900.44
2023-04-02T18:57:11.552Z,100904.81
2023-04-02T19:00:06.737Z,100903.94
2023-04-02T19:02:38.833Z,100905.66
2023-04-02T19:05:26.250Z,100892.63
2023-04-02T19:07:59.891Z,100898.72
2023-04-02T19:10:31.501Z,100899.59
2023-04-02T19:12:58.089Z,100897.00
2023-04-02T19:15:38.553Z,100886.53
2023-04-02T19:18:15.896Z,100892.63
2023-04-02T19:21:16.506Z,100891.75
2023-04-02T19:23:56.729Z,100889.13
2023-04-02T19:26:30.716Z,100897.84
2023-04-02T19:29:06.293Z,100889.13
2023-04-02T19:31:41.735Z,100886.53
2023-04-02T19:34:08.436Z,100883.94
2023-04-02T19:36:45.015Z,100890.00
2023-04-02T19:39:33.424Z,100883.06
2023-04-02T19:42:15.455Z,100881.31
2023-04-02T19:44:47.331Z,100888.25
2023-04-02T19:47:17.754Z,100879.59
2023-04-02T19:49:44.953Z,100876.97
2023-04-02T19:52:12.326Z,100870.88
2023-04-02T19:54:39.048Z,100876.09
2023-04-02T19:57:05.965Z,100882.19
2023-04-02T19:59:35.143Z,100877.84
2023-04-02T20:02:06.785Z,100878.69
2023-04-02T20:04:33.532Z,100882.16
2023-04-02T20:07:00.177Z,100870.88
2023-04-02T20:09:27.633Z,100878.69
2023-04-02T20:11:54.180Z,100871.72
2023-04-02T20:14:20.783Z,100886.50
2023-04-02T20:16:47.857Z,100886.50
2023-04-02T20:19:14.490Z,100887.38
2023-04-02T20:21:41.230Z,100887.38
2023-04-02T20:24:09.567Z,100897.78
2023-04-02T20:26:36.706Z,100896.06
2023-04-02T20:29:04.081Z,100898.69
2023-04-02T20:31:32.299Z,100902.16
2023-04-02T20:34:00.014Z,100897.78
2023-04-02T20:36:26.760Z,100894.31
2023-04-02T20:38:53.469Z,100894.31
2023-04-02T20:41:21.876Z,100894.31
2023-04-02T20:43:49.898Z,100899.53
2023-04-02T20:46:17.141Z,100896.06
2023-04-02T20:48:44.157Z,100891.72
2023-04-02T20:51:14.489Z,100894.31
2023-04-02T20:53:42.261Z,100896.03
2023-04-02T20:56:14.408Z,100891.72
2023-04-02T20:58:42.186Z,100884.75
2023-04-02T21:01:26.553Z,100889.97
2023-04-02T21:03:59.355Z,100885.59
2023-04-02T21:06:30.386Z,100883.84
2023-04-02T21:08:57.324Z,100883.00
2023-04-02T21:11:24.758Z,100885.59
2023-04-02T21:13:51.807Z,100885.56
2023-04-02T21:16:29.228Z,100888.16
2023-04-02T21:18:58.411Z,100884.69
2023-04-02T21:21:25.934Z,100888.16
2023-04-02T21:24:00.640Z,100889.00
2023-04-02T21:26:29.091Z,100894.19
2023-04-02T21:28:55.998Z,100880.28
2023-04-02T21:31:27.442Z,100895.06
2023-04-02T21:33:56.966Z,100891.56
2023-04-02T21:36:29.352Z,100888.97
2023-04-02T21:39:03.749Z,100893.28
2023-04-02T21:41:33.946Z,100888.94
2023-04-02T21:44:03.227Z,100887.22
2023-04-02T21:46:33.594Z,100893.28
2023-04-02T21:49:00.973Z,100888.09
2023-04-02T21:51:30.064Z,100885.47
2023-04-02T21:53:57.724Z,100884.63
2023-04-02T21:56:27.117Z,100870.69
2023-04-02T21:58:54.690Z,100877.66
2023-04-02T22:01:27.342Z,100887.16
2023-04-02T22:03:59.312Z,100883.69
2023-04-02T22:06:28.128Z,100875.00
2023-04-02T22:09:00.405Z,100882.78
2023-04-02T22:11:47.548Z,100872.38
2023-04-02T22:14:14.494Z,100888.00
2023-04-02T22:16:42.594Z,100882.78
2023-04-02T22:19:14.736Z,100873.22
2023-04-02T22:21:42.017Z,100868.06
2023-04-02T22:24:14.844Z,100881.91
2023-04-02T22:26:42.237Z,100878.41
2023-04-02T22:29:09.310Z,100887.97
2023-04-02T22:31:36.044Z,100882.75
2023-04-02T22:34:04.765Z,100883.59
2023-04-02T22:36:31.848Z,100879.22
2023-04-02T22:39:01.697Z,100873.16
2023-04-02T22:41:29.604Z,100873.16
2023-04-02T22:43:56.977Z,100863.59
2023-04-02T22:46:25.787Z,100868.78
2023-04-02T22:48:53.728Z,100870.53
2023-04-02T22:51:21.781Z,100875.75
2023-04-02T22:53:49.587Z,100871.38
2023-04-02T22:56:23.018Z,100873.09
2023-04-02T22:58:49.869Z,100880.03
2023-04-02T23:01:23.093Z,100867.84
2023-04-02T23:03:52.585Z,100873.06
2023-04-02T23:06:19.328Z,100875.69
2023-04-02T23:08:47.054Z,100872.25
2023-04-02T23:11:19.914Z,100877.47
2023-04-02T23:13:48.782Z,100869.66
2023-04-02T23:16:16.459Z,100870.56
2023-04-02T23:18:48.888Z,100868.81
2023-04-02T23:21:16.909Z,100866.19
2023-04-02T23:23:44.171Z,100877.44
2023-04-02T23:26:14.929Z,100870.47
2023-04-02T23:28:42.295Z,100874.78
2023-04-02T23:31:13.258Z,100867.81
2023-04-02T23:33:40.498Z,100867.75
2023-04-02T23:36:16.459Z,100874.69
2023-04-02T23:38:43.973Z,100876.44
2023-04-02T23:41:15.424Z,100875.56
2023-04-02T23:43:42.782Z,100878.16
2023-04-02T23:46:09.482Z,100883.34
2023-04-02T23:48:36.242Z,100875.53
2023-04-02T23:51:02.799Z,100882.47
2023-04-02T23:53:29.401Z,100876.38
2023-04-02T23:55:56.210Z,100875.50
2023-04-02T23:58:22.816Z,100869.41
